Time;durP1;ratioP1;P1;durP2;ratioP2;P2;SDS_P1;SDS_P2;PMS_P1;PMS_P2;Temp;Humidity;BMP_temperature;BMP_pressure;BME280_temperature;BME280_humidity;BME280_pressure;Samples;Min_cycle;Max_cycle;Signal;HPM_P1;HPM_P2
2023/12/15 00:02:47;;;;;;;8.43;3.67;;;3.80;99.90;;;;;;7843719;28;20637;-85
2023/12/15 00:06:32;;;;;;;8.63;3.63;;;3.90;99.90;;;;;;7839168;28;20197;-86
2023/12/15 00:10:19;;;;;;;6.80;3.90;;;3.80;99.90;;;;;;7860895;28;20189;-85
2023/12/15 00:14:04;;;;;;;7.30;3.87;;;3.90;99.90;;;;;;7855826;28;20242;-86
2023/12/15 00:17:50;;;;;;;7.17;4.70;;;3.90;99.90;;;;;;7846833;28;20262;-86
2023/12/15 00:21:35;;;;;;;7.53;4.10;;;3.90;99.90;;;;;;7853601;28;20189;-86
2023/12/15 00:25:21;;;;;;;8.60;4.73;;;3.90;99.90;;;;;;7845164;28;20206;-86
2023/12/15 00:29:07;;;;;;;7.83;4.77;;;3.90;99.90;;;;;;7853899;28;20184;-85
2023/12/15 00:32:52;;;;;;;7.27;4.60;;;4.00;99.90;;;;;;7850445;28;20185;-86
2023/12/15 00:36:38;;;;;;;6.37;4.27;;;3.90;99.90;;;;;;7848729;28;20294;-86
2023/12/15 00:40:24;;;;;;;8.77;5.00;;;3.90;99.90;;;;;;7836765;28;20186;-85
2023/12/15 00:44:09;;;;;;;13.47;5.73;;;3.80;99.90;;;;;;7838777;28;20205;-86
2023/12/15 00:47:55;;;;;;;10.13;5.50;;;3.80;99.90;;;;;;7845672;28;20181;-86
2023/12/15 00:51:40;;;;;;;9.97;5.90;;;3.80;99.90;;;;;;7851348;28;20193;-85
2023/12/15 00:55:26;;;;;;;13.40;6.70;;;3.70;99.90;;;;;;7835245;28;20217;-86
2023/12/15 00:59:11;;;;;;;11.03;6.03;;;3.60;99.90;;;;;;7853384;28;20185;-85
2023/12/15 01:02:57;;;;;;;11.83;6.23;;;3.60;99.90;;;;;;7843728;28;20186;-86
2023/12/15 01:06:43;;;;;;;13.00;6.70;;;3.60;99.90;;;;;;7838244;28;20209;-85
2023/12/15 01:10:28;;;;;;;9.90;5.73;;;3.50;99.90;;;;;;7834669;28;20201;-85
2023/12/15 01:14:15;;;;;;;11.57;6.20;;;3.50;99.90;;;;;;7855523;28;20729;-86
2023/12/15 01:18:00;;;;;;;9.10;5.47;;;3.50;99.90;;;;;;7848124;28;20200;-86
2023/12/15 01:21:46;;;;;;;12.47;6.37;;;3.50;99.90;;;;;;7836440;28;20174;-86
2023/12/15 01:25:32;;;;;;;11.07;5.93;;;3.60;99.90;;;;;;7853054;28;20197;-86
2023/12/15 01:29:17;;;;;;;9.13;5.40;;;3.60;99.90;;;;;;7861974;28;20186;-86
2023/12/15 01:33:03;;;;;;;8.77;5.00;;;3.50;99.90;;;;;;7849899;28;20182;-86
2023/12/15 01:36:48;;;;;;;9.07;5.27;;;3.50;99.90;;;;;;7862177;28;20297;-85
2023/12/15 01:40:34;;;;;;;9.63;4.90;;;3.40;99.90;;;;;;7853691;28;20185;-85
2023/12/15 01:44:20;;;;;;;8.13;4.20;;;3.40;99.90;;;;;;7845505;28;20213;-86
2023/12/15 01:48:07;;;;;;;6.30;3.90;;;3.30;99.90;;;;;;7859560;28;20802;-85
2023/12/15 01:51:52;;;;;;;6.83;3.83;;;3.30;99.90;;;;;;7865409;28;20205;-86
2023/12/15 01:55:38;;;;;;;5.73;3.03;;;3.20;99.90;;;;;;7870827;28;20216;-85
2023/12/15 01:59:24;;;;;;;5.27;2.80;;;3.20;99.90;;;;;;7863815;28;20232;-86
2023/12/15 02:03:09;;;;;;;4.13;2.60;;;3.20;99.90;;;;;;7850594;28;20178;-86
2023/12/15 02:06:55;;;;;;;5.17;3.00;;;3.20;99.90;;;;;;7840671;28;20280;-86
2023/12/15 02:10:40;;;;;;;4.20;2.63;;;3.10;99.90;;;;;;7841325;28;20272;-86
2023/12/15 02:14:26;;;;;;;4.17;2.83;;;3.10;99.90;;;;;;7839476;28;20635;-86
2023/12/15 02:18:12;;;;;;;4.43;3.07;;;3.20;99.90;;;;;;7860386;28;20644;-85
2023/12/15 02:21:58;;;;;;;4.93;2.97;;;3.20;99.90;;;;;;7879640;28;20188;-86
2023/12/15 02:25:43;;;;;;;4.40;2.60;;;3.10;99.90;;;;;;7868039;28;20292;-85
2023/12/15 02:29:30;;;;;;;3.60;2.40;;;3.00;99.90;;;;;;7870436;28;20587;-87
2023/12/15 02:33:16;;;;;;;3.30;2.30;;;3.10;99.90;;;;;;7870076;28;20181;-86
2023/12/15 02:37:01;;;;;;;4.70;3.00;;;3.10;99.90;;;;;;7865528;28;20205;-86
2023/12/15 02:40:47;;;;;;;3.70;2.80;;;3.10;99.90;;;;;;7847313;28;20215;-87
2023/12/15 02:44:33;;;;;;;5.20;3.13;;;3.10;99.90;;;;;;7870468;28;20213;-87
2023/12/15 02:48:18;;;;;;;5.23;3.30;;;3.20;99.90;;;;;;7862514;28;20185;-85
2023/12/15 02:52:04;;;;;;;4.37;3.07;;;3.00;99.90;;;;;;7869481;28;20201;-85
2023/12/15 02:55:49;;;;;;;7.20;3.83;;;3.10;99.90;;;;;;7847378;28;20251;-86
2023/12/15 02:59:35;;;;;;;7.10;3.53;;;3.10;99.90;;;;;;7865386;28;20189;-86
2023/12/15 03:03:21;;;;;;;5.73;3.83;;;3.10;99.90;;;;;;7855092;28;20315;-85
2023/12/15 03:07:06;;;;;;;7.17;3.60;;;3.10;99.90;;;;;;7859437;28;20209;-86
2023/12/15 03:10:54;;;;;;;5.77;3.23;;;3.10;99.90;;;;;;7854172;28;20429;-87
2023/12/15 03:14:40;;;;;;;7.53;4.40;;;3.10;99.90;;;;;;7839763;28;20206;-87
2023/12/15 03:18:26;;;;;;;6.50;4.10;;;3.10;99.90;;;;;;7845643;28;20205;-86
2023/12/15 03:22:11;;;;;;;10.87;5.40;;;3.20;99.90;;;;;;7857586;28;20549;-86
2023/12/15 03:25:57;;;;;;;10.07;5.00;;;3.10;99.90;;;;;;7870093;28;20197;-86
2023/12/15 03:29:43;;;;;;;11.07;5.73;;;3.10;99.90;;;;;;7858493;28;20190;-87
2023/12/15 03:33:34;;;;;;;8.90;5.37;;;3.10;99.90;;;;;;7841395;28;20269;-87
2023/12/15 03:37:20;;;;;;;12.07;6.40;;;3.10;99.90;;;;;;7837154;28;20772;-86
2023/12/15 03:41:05;;;;;;;14.33;7.00;;;3.00;99.90;;;;;;7844603;28;20344;-86
2023/12/15 03:44:51;;;;;;;14.53;6.90;;;3.00;99.90;;;;;;7855489;28;20552;-87
2023/12/15 03:48:37;;;;;;;15.20;6.30;;;3.00;99.90;;;;;;7838404;28;20213;-86
2023/12/15 03:52:22;;;;;;;14.07;6.83;;;3.00;99.90;;;;;;7850914;28;20715;-86
2023/12/15 03:56:08;;;;;;;16.43;7.57;;;3.00;99.90;;;;;;7850909;28;20686;-87
2023/12/15 03:59:54;;;;;;;15.03;7.67;;;3.00;99.90;;;;;;7865101;28;20181;-87
2023/12/15 04:03:39;;;;;;;17.57;8.37;;;3.00;99.90;;;;;;7845803;28;20174;-87
2023/12/15 04:07:25;;;;;;;15.70;7.93;;;3.00;99.90;;;;;;7837691;28;20259;-86
2023/12/15 04:11:11;;;;;;;16.07;8.23;;;3.00;99.90;;;;;;7838922;28;20181;-86
2023/12/15 04:14:56;;;;;;;18.23;9.57;;;3.00;99.90;;;;;;7847670;28;20230;-87
2023/12/15 04:18:42;;;;;;;20.80;10.33;;;3.10;99.90;;;;;;7860241;28;20250;-86
2023/12/15 04:22:28;;;;;;;18.37;9.77;;;3.00;99.90;;;;;;7863036;28;20212;-86
2023/12/15 04:26:13;;;;;;;23.27;10.10;;;2.90;99.90;;;;;;7868294;28;20547;-86
2023/12/15 04:29:59;;;;;;;21.50;9.80;;;3.00;99.90;;;;;;7852412;28;20268;-87
2023/12/15 04:33:44;;;;;;;22.80;10.37;;;3.00;99.90;;;;;;7846659;28;20189;-86
2023/12/15 04:37:30;;;;;;;27.43;13.43;;;3.00;99.90;;;;;;7860257;28;20235;-86
2023/12/15 04:41:20;;;;;;;32.50;14.17;;;2.90;99.90;;;;;;7902459;28;20189;-85
2023/12/15 04:45:09;;;;;;;29.87;13.47;;;2.90;99.90;;;;;;7885044;28;20223;-85
2023/12/15 04:48:59;;;;;;;31.10;12.90;;;2.80;99.90;;;;;;7862614;28;20196;-85
2023/12/15 04:52:45;;;;;;;25.47;11.70;;;2.80;99.90;;;;;;7834821;28;20220;-85
2023/12/15 04:56:30;;;;;;;30.10;13.33;;;2.70;99.90;;;;;;7856966;28;20209;-85
2023/12/15 05:00:16;;;;;;;28.50;12.80;;;2.60;99.90;;;;;;7865453;28;20185;-86
2023/12/15 05:04:02;;;;;;;26.60;13.20;;;2.60;99.90;;;;;;7869012;28;20224;-85
2023/12/15 05:07:49;;;;;;;31.60;13.93;;;2.70;99.90;;;;;;7871938;28;20654;-86
2023/12/15 05:11:35;;;;;;;30.57;13.90;;;2.70;99.90;;;;;;7869641;28;20658;-85
2023/12/15 05:15:21;;;;;;;24.83;12.67;;;2.80;99.90;;;;;;7870553;28;20787;-86
2023/12/15 05:19:06;;;;;;;25.57;11.80;;;2.80;99.90;;;;;;7854707;28;20559;-85
2023/12/15 05:22:52;;;;;;;24.17;12.33;;;2.70;99.90;;;;;;7856011;28;20820;-85
2023/12/15 05:26:37;;;;;;;22.27;13.03;;;2.70;99.90;;;;;;7854073;28;20202;-86
2023/12/15 05:30:23;;;;;;;26.67;14.10;;;2.70;99.90;;;;;;7842736;28;20269;-86
2023/12/15 05:34:08;;;;;;;27.20;13.67;;;2.80;99.90;;;;;;7873639;28;20181;-86
2023/12/15 05:37:54;;;;;;;23.80;12.00;;;2.80;99.90;;;;;;7847400;28;20267;-85
2023/12/15 05:41:43;;;;;;;22.13;11.73;;;3.00;99.90;;;;;;7846735;28;20174;-86
2023/12/15 05:45:28;;;;;;;19.10;10.70;;;2.90;99.90;;;;;;7846387;28;20603;-85
2023/12/15 05:49:14;;;;;;;23.10;11.17;;;3.00;99.90;;;;;;7848429;28;20174;-86
2023/12/15 05:53:00;;;;;;;20.10;10.93;;;2.90;99.90;;;;;;7855667;28;20593;-85
2023/12/15 05:56:45;;;;;;;19.63;10.50;;;2.90;99.90;;;;;;7838527;28;20216;-85
2023/12/15 06:00:31;;;;;;;23.83;11.40;;;2.90;99.90;;;;;;7860269;28;20205;-85
2023/12/15 06:04:17;;;;;;;19.80;9.57;;;2.80;99.90;;;;;;7861822;28;20194;-87
2023/12/15 06:08:03;;;;;;;18.50;9.40;;;2.70;99.90;;;;;;7861465;28;20244;-86
2023/12/15 06:11:49;;;;;;;20.40;9.47;;;2.70;99.90;;;;;;7856489;28;20232;-86
2023/12/15 06:15:34;;;;;;;18.70;9.07;;;2.70;99.90;;;;;;7845226;28;20221;-85
2023/12/15 06:19:20;;;;;;;17.90;9.23;;;2.70;99.90;;;;;;7844671;28;20178;-86
2023/12/15 06:23:06;;;;;;;17.93;9.33;;;2.70;99.90;;;;;;7868209;28;20173;-85
2023/12/15 06:26:53;;;;;;;17.40;9.07;;;2.80;99.90;;;;;;7857911;28;20206;-86
2023/12/15 06:30:38;;;;;;;15.07;8.40;;;2.80;99.90;;;;;;7857673;28;20189;-85
2023/12/15 06:34:24;;;;;;;27.03;13.13;;;2.80;99.90;;;;;;7862431;28;20423;-85
2023/12/15 06:38:10;;;;;;;18.43;10.13;;;3.10;99.90;;;;;;7858200;28;20212;-86
2023/12/15 06:41:56;;;;;;;17.13;9.90;;;3.00;99.90;;;;;;7850458;28;20330;-87
2023/12/15 06:45:42;;;;;;;22.27;9.83;;;3.00;99.90;;;;;;7857806;28;20266;-87
2023/12/15 06:49:30;;;;;;;19.27;9.23;;;3.00;99.90;;;;;;7864214;28;20188;-88
2023/12/15 06:53:17;;;;;;;22.00;10.77;;;3.00;99.90;;;;;;7869873;28;20426;-86
2023/12/15 06:57:03;;;;;;;19.27;9.70;;;3.00;99.90;;;;;;7871539;28;20670;-86
2023/12/15 07:00:48;;;;;;;18.93;9.23;;;3.00;99.90;;;;;;7855727;28;20552;-87
2023/12/15 07:04:35;;;;;;;18.47;8.93;;;2.90;99.90;;;;;;7839748;28;20279;-88
2023/12/15 07:08:20;;;;;;;16.70;8.63;;;2.90;99.90;;;;;;7847453;28;20254;-86
2023/12/15 07:12:08;;;;;;;20.27;10.30;;;3.00;99.90;;;;;;7863448;28;20185;-87
2023/12/15 07:15:53;;;;;;;18.13;10.03;;;3.00;99.90;;;;;;7870302;28;20209;-86
2023/12/15 07:19:39;;;;;;;17.63;8.73;;;2.90;99.90;;;;;;7870180;28;20253;-86
2023/12/15 07:23:24;;;;;;;20.63;10.17;;;2.90;99.90;;;;;;7865142;28;20772;-86
2023/12/15 07:27:10;;;;;;;18.17;9.20;;;2.90;99.90;;;;;;7865613;28;20782;-86
2023/12/15 07:30:56;;;;;;;17.83;9.57;;;2.80;99.90;;;;;;7838679;28;20220;-87
2023/12/15 07:34:41;;;;;;;17.33;8.87;;;2.90;99.90;;;;;;7839062;28;20201;-88
2023/12/15 07:38:27;;;;;;;19.47;10.57;;;3.00;99.90;;;;;;7838441;28;20633;-87
2023/12/15 07:42:12;;;;;;;23.17;10.90;;;2.80;99.90;;;;;;7844836;28;20635;-87
2023/12/15 07:46:00;;;;;;;21.47;10.07;;;2.80;99.90;;;;;;7868077;28;20197;-87
2023/12/15 07:49:45;;;;;;;18.97;9.37;;;2.80;99.90;;;;;;7870969;28;20181;-87
2023/12/15 07:53:31;;;;;;;25.23;11.53;;;2.80;99.90;;;;;;7869340;28;20291;-87
2023/12/15 07:57:17;;;;;;;21.13;11.53;;;2.80;99.90;;;;;;7866515;28;20235;-87
2023/12/15 08:01:02;;;;;;;19.83;10.60;;;2.80;99.90;;;;;;7869792;28;20177;-87
2023/12/15 08:04:48;;;;;;;24.60;10.73;;;2.70;99.90;;;;;;7856565;28;20686;-88
2023/12/15 08:08:34;;;;;;;21.40;11.00;;;2.70;99.90;;;;;;7853470;28;20306;-86
2023/12/15 08:12:19;;;;;;;22.10;10.77;;;2.70;99.90;;;;;;7844781;28;20177;-87
2023/12/15 08:16:06;;;;;;;22.77;11.20;;;2.80;99.90;;;;;;7855437;28;20300;-86
2023/12/15 08:19:52;;;;;;;20.20;10.03;;;2.80;99.90;;;;;;7858773;28;20177;-87
2023/12/15 08:23:37;;;;;;;20.40;10.77;;;2.80;99.90;;;;;;7868840;28;20195;-88
2023/12/15 08:27:24;;;;;;;20.23;11.30;;;2.80;99.90;;;;;;7868977;28;20220;-86
2023/12/15 08:31:10;;;;;;;24.27;11.57;;;3.00;99.90;;;;;;7870548;28;20278;-86
2023/12/15 08:34:55;;;;;;;22.67;10.70;;;2.90;99.90;;;;;;7853067;28;20255;-87
2023/12/15 08:38:41;;;;;;;26.30;11.93;;;2.90;99.90;;;;;;7842027;28;20580;-87
2023/12/15 08:42:26;;;;;;;24.90;11.80;;;2.80;99.90;;;;;;7844895;28;20721;-89
2023/12/15 08:46:12;;;;;;;24.77;11.73;;;2.80;99.90;;;;;;7860429;28;20224;-87
2023/12/15 08:49:58;;;;;;;25.93;12.90;;;2.70;99.90;;;;;;7870233;28;20189;-87
2023/12/15 08:53:43;;;;;;;26.03;11.97;;;2.70;99.90;;;;;;7872883;28;20225;-86
2023/12/15 08:57:29;;;;;;;22.43;11.87;;;2.70;99.90;;;;;;7875408;28;20228;-86
2023/12/15 09:01:15;;;;;;;27.77;13.20;;;2.80;99.90;;;;;;7876883;28;20166;-87
2023/12/15 09:05:01;;;;;;;27.63;13.03;;;2.80;99.90;;;;;;7875155;28;20246;-87
2023/12/15 09:08:47;;;;;;;24.87;12.17;;;2.90;99.90;;;;;;7873857;28;20279;-88
2023/12/15 09:12:32;;;;;;;29.10;13.43;;;2.80;99.90;;;;;;7851771;28;20181;-87
2023/12/15 09:16:18;;;;;;;25.93;11.57;;;2.80;99.90;;;;;;7876867;28;20205;-88
2023/12/15 09:20:04;;;;;;;25.63;13.73;;;2.90;99.90;;;;;;7872159;28;20602;-87
2023/12/15 09:23:50;;;;;;;28.30;13.20;;;2.90;99.90;;;;;;7871818;28;20204;-87
2023/12/15 09:27:35;;;;;;;24.60;12.13;;;2.90;99.90;;;;;;7896946;28;20226;-88
2023/12/15 09:31:21;;;;;;;26.30;13.47;;;2.90;99.90;;;;;;7904756;28;20243;-86
2023/12/15 09:35:07;;;;;;;28.20;14.47;;;2.90;99.90;;;;;;7887489;28;20213;-86
2023/12/15 09:38:54;;;;;;;26.90;14.40;;;2.80;99.90;;;;;;7874125;28;20205;-87
2023/12/15 09:42:40;;;;;;;28.63;13.30;;;2.90;99.90;;;;;;7873078;28;20310;-86
2023/12/15 09:46:27;;;;;;;31.00;13.10;;;2.90;99.90;;;;;;7871391;28;20216;-86
2023/12/15 09:50:13;;;;;;;40.53;18.20;;;3.00;99.90;;;;;;7853664;28;20192;-87
2023/12/15 09:53:59;;;;;;;32.53;16.53;;;3.00;99.90;;;;;;7852061;28;20201;-85
2023/12/15 09:57:46;;;;;;;27.53;14.13;;;3.10;99.90;;;;;;7896146;28;20223;-87
2023/12/15 10:01:31;;;;;;;27.97;14.33;;;3.20;99.90;;;;;;7903539;28;20266;-86
2023/12/15 10:05:18;;;;;;;26.50;13.27;;;3.20;99.90;;;;;;7894224;28;20678;-87
2023/12/15 10:09:13;;;;;;;27.50;12.87;;;3.10;99.90;;;;;;7856902;28;20178;-87
2023/12/15 10:12:58;;;;;;;25.90;13.13;;;3.10;99.90;;;;;;7861578;28;20204;-85
2023/12/15 10:16:46;;;;;;;31.27;16.43;;;3.20;99.90;;;;;;7864566;28;20217;-86
2023/12/15 10:20:32;;;;;;;25.90;13.23;;;3.20;99.90;;;;;;7839748;28;20178;-86
2023/12/15 10:24:22;;;;;;;23.67;12.33;;;3.30;99.90;;;;;;7847879;28;20206;-87
2023/12/15 10:28:08;;;;;;;28.13;15.10;;;3.20;99.90;;;;;;7841211;28;20200;-86
2023/12/15 10:31:54;;;;;;;31.60;14.13;;;3.20;99.90;;;;;;7840963;28;20351;-86
2023/12/15 10:35:40;;;;;;;27.23;13.63;;;3.20;99.90;;;;;;7850121;28;20208;-86
2023/12/15 10:39:26;;;;;;;25.50;13.17;;;3.20;99.90;;;;;;7847814;28;20280;-86
2023/12/15 10:43:13;;;;;;;26.60;14.50;;;3.20;99.90;;;;;;7870984;28;20205;-86
2023/12/15 10:47:00;;;;;;;24.27;12.77;;;3.30;99.90;;;;;;7868628;28;20238;-86
2023/12/15 10:50:46;;;;;;;25.87;12.77;;;3.30;99.90;;;;;;7856815;28;20185;-86
2023/12/15 10:54:34;;;;;;;22.77;12.27;;;3.30;99.90;;;;;;7868557;28;20213;-87
2023/12/15 10:58:19;;;;;;;26.33;13.37;;;3.40;99.90;;;;;;7864474;28;20229;-87
2023/12/15 11:02:11;;;;;;;24.83;13.10;;;3.40;99.90;;;;;;7863603;28;20178;-86
2023/12/15 11:05:59;;;;;;;26.27;12.77;;;3.40;99.90;;;;;;7864970;28;20212;-86
2023/12/15 11:09:45;;;;;;;26.30;12.30;;;3.40;99.90;;;;;;7868393;28;20173;-86
2023/12/15 11:13:58;;;;;;;26.30;13.50;;;3.50;99.90;;;;;;7839387;28;20189;-86
2023/12/15 11:17:49;;;;;;;23.40;12.37;;;3.50;99.90;;;;;;7842955;28;20310;-85
2023/12/15 11:21:36;;;;;;;27.10;12.27;;;3.50;99.90;;;;;;7868207;28;20175;-86
2023/12/15 11:25:49;;;;;;;26.23;12.60;;;3.60;99.90;;;;;;7862137;28;20902;-86
2023/12/15 11:29:38;;;;;;;26.80;13.37;;;3.60;99.90;;;;;;7854200;28;20201;-85
2023/12/15 11:33:26;;;;;;;27.47;14.90;;;3.70;99.90;;;;;;7854513;28;20244;-86
2023/12/15 11:37:14;;;;;;;31.63;18.50;;;3.80;99.90;;;;;;7840505;28;20432;-86
2023/12/15 11:41:01;;;;;;;35.77;24.23;;;3.90;99.90;;;;;;7851248;28;20182;-86
2023/12/15 11:44:48;;;;;;;25.17;14.20;;;3.80;99.90;;;;;;7865345;28;20250;-86
2023/12/15 11:48:34;;;;;;;26.43;14.27;;;3.80;99.90;;;;;;7861775;28;20188;-86
2023/12/15 11:52:20;;;;;;;27.33;13.57;;;3.80;99.90;;;;;;7868129;28;20189;-87
2023/12/15 11:56:08;;;;;;;27.60;13.30;;;3.80;99.90;;;;;;7866718;28;20213;-86
2023/12/15 11:59:54;;;;;;;22.60;11.77;;;3.90;99.90;;;;;;7868394;28;20176;-86
2023/12/15 12:03:39;;;;;;;23.43;12.10;;;3.90;99.90;;;;;;7863565;28;20177;-86
2023/12/15 12:07:27;;;;;;;23.70;12.20;;;3.90;99.90;;;;;;7859918;28;20212;-86
2023/12/15 12:11:13;;;;;;;25.63;12.43;;;3.90;99.90;;;;;;7867904;28;20177;-86
2023/12/15 12:15:04;;;;;;;23.97;12.00;;;3.90;99.90;;;;;;7859773;28;20683;-86
2023/12/15 12:18:49;;;;;;;22.67;11.40;;;3.90;99.90;;;;;;7845610;28;20228;-86
2023/12/15 12:22:38;;;;;;;26.23;11.40;;;4.00;99.90;;;;;;7857307;28;20188;-87
2023/12/15 12:26:26;;;;;;;25.67;12.07;;;3.90;99.90;;;;;;7865470;28;20205;-85
2023/12/15 12:30:14;;;;;;;23.53;11.33;;;4.00;99.90;;;;;;7888631;28;20176;-87
2023/12/15 12:34:00;;;;;;;20.47;11.07;;;4.00;99.90;;;;;;7898345;28;20210;-87
2023/12/15 12:37:45;;;;;;;19.27;10.57;;;4.10;99.90;;;;;;7898372;28;20205;-87
2023/12/15 12:41:32;;;;;;;21.73;11.47;;;4.10;99.90;;;;;;7869736;28;20185;-86
2023/12/15 12:45:18;;;;;;;19.97;11.27;;;4.10;99.90;;;;;;7868292;28;20189;-87
2023/12/15 12:49:04;;;;;;;22.50;10.97;;;4.10;99.90;;;;;;7847275;28;20187;-87
2023/12/15 12:52:49;;;;;;;23.93;10.10;;;4.10;99.90;;;;;;7846047;28;20190;-86
2023/12/15 12:56:36;;;;;;;18.63;8.97;;;4.10;99.90;;;;;;7855560;28;20654;-89
2023/12/15 13:00:22;;;;;;;15.83;8.63;;;4.10;99.90;;;;;;7844554;28;20274;-86
2023/12/15 13:04:09;;;;;;;20.70;9.33;;;4.10;99.90;;;;;;7840178;28;20169;-87
2023/12/15 13:07:57;;;;;;;19.23;9.73;;;4.00;99.90;;;;;;7858587;28;21735;-86
2023/12/15 13:11:43;;;;;;;17.30;9.07;;;4.20;99.90;;;;;;7844569;28;20670;-86
2023/12/15 13:15:28;;;;;;;15.20;8.37;;;4.10;99.90;;;;;;7846225;28;20555;-86
2023/12/15 13:19:14;;;;;;;18.57;9.30;;;4.20;99.90;;;;;;7864674;28;20209;-87
2023/12/15 13:23:00;;;;;;;16.13;8.23;;;4.10;99.90;;;;;;7856703;28;20177;-85
2023/12/15 13:26:45;;;;;;;14.73;8.63;;;4.00;99.90;;;;;;7867335;28;20201;-87
2023/12/15 13:30:31;;;;;;;20.10;10.63;;;4.00;99.90;;;;;;7871277;28;20178;-87
2023/12/15 13:34:17;;;;;;;18.13;10.57;;;4.00;99.90;;;;;;7860839;28;20201;-86
2023/12/15 13:38:03;;;;;;;18.00;10.20;;;4.00;99.90;;;;;;7871316;28;20201;-86
2023/12/15 13:41:50;;;;;;;51.00;26.53;;;4.00;99.90;;;;;;7856761;28;20243;-86
2023/12/15 13:45:37;;;;;;;68.13;42.63;;;4.00;99.90;;;;;;7866601;28;20197;-86
2023/12/15 13:49:24;;;;;;;15.23;8.37;;;4.00;99.90;;;;;;7844679;28;20178;-86
2023/12/15 13:53:10;;;;;;;12.83;7.33;;;3.90;99.90;;;;;;7869288;28;20201;-86
2023/12/15 13:57:00;;;;;;;11.43;6.30;;;4.00;99.90;;;;;;7861829;28;20251;-87
2023/12/15 14:00:49;;;;;;;10.20;6.23;;;3.90;99.90;;;;;;7852074;28;20197;-86
2023/12/15 14:04:36;;;;;;;11.53;6.47;;;3.80;99.90;;;;;;7841471;28;20290;-86
2023/12/15 14:08:25;;;;;;;10.53;6.40;;;3.80;99.90;;;;;;7887972;28;20219;-85
2023/12/15 14:12:10;;;;;;;10.83;5.93;;;4.00;99.90;;;;;;7896038;28;20207;-85
2023/12/15 14:15:57;;;;;;;11.83;6.50;;;3.80;99.90;;;;;;7906249;28;20531;-87
2023/12/15 14:19:42;;;;;;;8.50;5.70;;;3.80;99.90;;;;;;7854964;28;20620;-87
2023/12/15 14:23:28;;;;;;;11.20;6.63;;;3.90;99.90;;;;;;7868019;28;20173;-86
2023/12/15 14:27:14;;;;;;;10.90;5.30;;;3.90;99.90;;;;;;7871120;28;20193;-85
2023/12/15 14:31:00;;;;;;;12.60;6.87;;;3.80;99.90;;;;;;7867799;28;20192;-87
2023/12/15 14:34:46;;;;;;;90.87;33.57;;;3.80;99.90;;;;;;7862706;28;20830;-87
2023/12/15 14:38:31;;;;;;;12.50;6.73;;;3.80;99.90;;;;;;7861650;28;20597;-87
2023/12/15 14:42:17;;;;;;;14.30;7.20;;;3.70;99.90;;;;;;7861552;28;20185;-86
2023/12/15 14:46:03;;;;;;;10.63;5.13;;;3.70;99.90;;;;;;7849746;28;20213;-86
2023/12/15 14:49:51;;;;;;;10.20;5.67;;;3.60;99.90;;;;;;7851530;28;20185;-86
2023/12/15 14:53:37;;;;;;;17.97;8.93;;;3.70;99.90;;;;;;7841978;28;20267;-85
2023/12/15 14:57:23;;;;;;;12.53;6.00;;;3.70;99.90;;;;;;7853419;28;20291;-86
2023/12/15 15:01:12;;;;;;;11.67;6.00;;;3.60;99.90;;;;;;7872040;28;20654;-86
2023/12/15 15:04:59;;;;;;;9.77;6.23;;;3.60;99.90;;;;;;7868582;28;20222;-85
2023/12/15 15:08:45;;;;;;;11.40;5.73;;;3.70;99.90;;;;;;7869849;28;20311;-85
2023/12/15 15:12:31;;;;;;;10.13;5.60;;;3.60;99.90;;;;;;7863064;28;20215;-85
2023/12/15 15:16:17;;;;;;;11.87;5.57;;;3.70;99.90;;;;;;7866478;28;20205;-86
2023/12/15 15:20:03;;;;;;;18.63;8.23;;;3.70;99.90;;;;;;7865878;28;20970;-86
2023/12/15 15:23:53;;;;;;;10.57;6.43;;;3.80;99.90;;;;;;7867412;28;20412;-85
2023/12/15 15:27:39;;;;;;;62.53;33.22;;;3.90;99.90;;;;;;7859488;28;21025;-86
2023/12/15 15:31:25;;;;;;;19.20;9.70;;;4.00;99.90;;;;;;7851272;28;20179;-87
2023/12/15 15:35:12;;;;;;;24.15;12.48;;;3.90;99.90;;;;;;7868284;28;20363;-86
2023/12/15 15:38:57;;;;;;;13.13;7.73;;;3.80;99.90;;;;;;7864848;28;20241;-86
2023/12/15 15:42:43;;;;;;;14.80;10.40;;;3.80;99.90;;;;;;7861103;28;20426;-86
2023/12/15 15:46:28;;;;;;;15.13;8.93;;;4.00;99.90;;;;;;7866110;28;20205;-88
2023/12/15 15:50:14;;;;;;;14.95;10.45;;;3.90;99.90;;;;;;7868446;28;20402;-87
2023/12/15 15:54:00;;;;;;;12.07;7.70;;;4.10;99.90;;;;;;7868798;28;20184;-86
2023/12/15 15:57:45;;;;;;;16.27;8.20;;;4.00;99.90;;;;;;7841374;28;20678;-86
2023/12/15 16:01:37;;;;;;;20.77;11.40;;;3.90;99.90;;;;;;7837807;28;20174;-85
2023/12/15 16:05:23;;;;;;;62.90;30.27;;;3.90;99.90;;;;;;7836998;28;20348;-86
2023/12/15 16:09:09;;;;;;;18.13;9.80;;;3.90;99.90;;;;;;7847578;28;20186;-86
2023/12/15 16:12:57;;;;;;;20.57;9.50;;;3.90;99.90;;;;;;7854297;28;20177;-86
2023/12/15 16:16:43;;;;;;;14.10;8.43;;;3.90;99.90;;;;;;7862128;28;20266;-86
2023/12/15 16:20:30;;;;;;;17.13;8.53;;;3.80;99.90;;;;;;7861300;28;20177;-85
2023/12/15 16:24:16;;;;;;;16.37;9.47;;;3.90;99.90;;;;;;7866964;28;20173;-86
2023/12/15 16:28:02;;;;;;;21.97;10.97;;;3.90;99.90;;;;;;7866323;28;20196;-85
2023/12/15 16:31:51;;;;;;;21.33;10.13;;;3.90;99.90;;;;;;7836317;28;20265;-87
2023/12/15 16:35:37;;;;;;;22.80;10.33;;;3.90;99.90;;;;;;7851628;28;20732;-86
2023/12/15 16:39:24;;;;;;;21.90;11.23;;;4.00;99.90;;;;;;7856408;28;20224;-86
2023/12/15 16:43:10;;;;;;;23.77;10.90;;;3.90;99.90;;;;;;7843552;28;20182;-86
2023/12/15 16:46:55;;;;;;;25.93;12.87;;;3.90;99.90;;;;;;7835334;28;20213;-86
2023/12/15 16:50:42;;;;;;;22.30;10.73;;;3.90;99.90;;;;;;7836619;28;20192;-86
2023/12/15 16:54:28;;;;;;;21.93;10.77;;;3.90;99.90;;;;;;7853351;28;20263;-86
2023/12/15 16:58:13;;;;;;;21.00;11.43;;;3.90;99.90;;;;;;7866248;28;20201;-86
2023/12/15 17:02:01;;;;;;;21.47;10.47;;;3.90;99.90;;;;;;7841616;28;20174;-86
2023/12/15 17:05:48;;;;;;;24.93;11.23;;;3.90;99.90;;;;;;7859491;28;20620;-85
2023/12/15 17:09:33;;;;;;;26.83;11.00;;;3.90;99.90;;;;;;7858916;28;20264;-86
2023/12/15 17:13:19;;;;;;;24.87;11.47;;;4.00;99.90;;;;;;7857733;28;20178;-86
2023/12/15 17:17:05;;;;;;;21.90;11.33;;;4.00;99.90;;;;;;7844212;28;20239;-87
2023/12/15 17:20:53;;;;;;;28.93;11.40;;;4.00;99.90;;;;;;7871288;28;20177;-86
2023/12/15 17:24:39;;;;;;;23.07;11.37;;;4.00;99.90;;;;;;7868590;28;20756;-86
2023/12/15 17:28:25;;;;;;;25.17;11.53;;;4.00;99.90;;;;;;7852272;28;20195;-87
2023/12/15 17:32:10;;;;;;;26.80;12.67;;;4.00;99.90;;;;;;7871535;28;20201;-86
2023/12/15 17:35:57;;;;;;;30.37;12.60;;;4.00;99.90;;;;;;7894566;28;20283;-86
2023/12/15 17:39:43;;;;;;;28.00;11.63;;;4.20;99.90;;;;;;7896657;28;20213;-85
2023/12/15 17:43:28;;;;;;;25.07;11.50;;;4.20;99.90;;;;;;7871654;28;20256;-86
2023/12/15 17:47:14;;;;;;;20.17;10.23;;;4.10;99.90;;;;;;7868827;28;20316;-86
2023/12/15 17:51:00;;;;;;;22.27;10.80;;;4.10;99.90;;;;;;7871469;28;20177;-86
2023/12/15 17:54:46;;;;;;;20.37;10.33;;;4.20;99.90;;;;;;7870392;28;20243;-87
2023/12/15 17:58:31;;;;;;;25.17;11.43;;;4.20;99.90;;;;;;7870855;28;20223;-86
2023/12/15 18:02:17;;;;;;;26.23;11.43;;;4.20;99.90;;;;;;7869676;28;20185;-86
2023/12/15 18:06:03;;;;;;;25.17;11.50;;;4.20;99.90;;;;;;7869587;28;20205;-86
2023/12/15 18:09:48;;;;;;;23.33;11.20;;;4.20;99.90;;;;;;7867940;28;20184;-87
2023/12/15 18:13:34;;;;;;;25.07;12.63;;;4.20;99.90;;;;;;7862151;28;20213;-87
2023/12/15 18:17:20;;;;;;;43.73;18.57;;;4.20;99.90;;;;;;7856390;28;20217;-87
2023/12/15 18:21:05;;;;;;;36.90;17.60;;;4.20;99.90;;;;;;7860419;28;20181;-86
2023/12/15 18:24:51;;;;;;;31.47;12.80;;;4.20;99.90;;;;;;7870919;28;20687;-87
2023/12/15 18:28:38;;;;;;;23.90;11.77;;;4.20;99.90;;;;;;7867384;28;20265;-86
2023/12/15 18:32:23;;;;;;;27.30;12.10;;;4.20;99.90;;;;;;7838393;28;20224;-86
2023/12/15 18:36:09;;;;;;;28.13;12.00;;;4.20;99.90;;;;;;7858555;28;20205;-87
2023/12/15 18:39:56;;;;;;;26.00;11.57;;;4.20;99.90;;;;;;7869396;28;20177;-87
2023/12/15 18:43:42;;;;;;;53.23;20.80;;;4.20;99.90;;;;;;7885735;28;20521;-86
2023/12/15 18:47:28;;;;;;;32.23;13.43;;;4.30;99.90;;;;;;7869896;28;20233;-86
2023/12/15 18:51:21;;;;;;;26.60;12.03;;;4.20;99.90;;;;;;7852312;28;20190;-86
2023/12/15 18:55:08;;;;;;;34.60;14.57;;;4.20;99.90;;;;;;7859338;28;20209;-86
2023/12/15 18:58:54;;;;;;;31.60;12.90;;;4.30;99.90;;;;;;7872213;28;20185;-86
2023/12/15 19:02:40;;;;;;;35.63;14.07;;;4.20;99.90;;;;;;7880938;28;20193;-88
2023/12/15 19:06:42;;;;;;;26.63;11.37;;;4.30;99.90;;;;;;7901400;28;20193;-88
2023/12/15 19:10:45;;;;;;;27.37;10.93;;;4.30;99.90;;;;;;7900207;28;20189;-86
2023/12/15 19:14:35;;;;;;;26.57;11.00;;;4.30;99.90;;;;;;7854170;28;20201;-86
2023/12/15 19:18:22;;;;;;;22.00;11.17;;;4.20;99.90;;;;;;7859612;28;20208;-85
2023/12/15 19:22:07;;;;;;;22.20;10.53;;;4.40;99.90;;;;;;7848327;28;20186;-86
2023/12/15 19:25:56;;;;;;;22.70;10.57;;;4.30;99.90;;;;;;7849888;28;20212;-87
2023/12/15 19:29:46;;;;;;;25.67;11.40;;;4.30;99.90;;;;;;7857507;28;20726;-86
2023/12/15 19:33:34;;;;;;;25.67;10.77;;;4.30;99.90;;;;;;7838284;28;20658;-87